createdAt,value
2022-10-17T00:00:34.675Z,87.43
2022-10-17T00:03:01.896Z,88.30
2022-10-17T00:05:28.847Z,88.04
2022-10-17T00:07:55.523Z,88.01
2022-10-17T00:10:22.690Z,88.01
2022-10-17T00:12:51.465Z,88.41
2022-10-17T00:15:20.339Z,88.72
2022-10-17T00:17:47.267Z,88.80
2022-10-17T00:20:14.350Z,88.09
2022-10-17T00:22:41.037Z,87.93
2022-10-17T00:25:08.066Z,88.38
2022-10-17T00:27:36.536Z,88.10
2022-10-17T00:30:05.206Z,88.50
2022-10-17T00:32:32.071Z,87.02
2022-10-17T00:34:59.010Z,87.05
2022-10-17T00:37:25.663Z,87.44
2022-10-17T00:39:52.365Z,87.23
2022-10-17T00:42:18.931Z,87.81
2022-10-17T00:44:47.632Z,88.21
2022-10-17T00:47:18.779Z,88.83
2022-10-17T00:49:45.939Z,88.06
2022-10-17T00:52:17.979Z,87.90
2022-10-17T00:54:49.388Z,88.43
2022-10-17T00:57:16.886Z,86.73
2022-10-17T00:59:47.299Z,86.09
2022-10-17T01:02:17.335Z,85.41
2022-10-17T01:04:47.490Z,85.94
2022-10-17T01:07:14.203Z,86.63
2022-10-17T01:09:42.964Z,87.94
2022-10-17T01:12:18.499Z,88.32
2022-10-17T01:15:03.255Z,87.44
2022-10-17T01:17:48.504Z,88.68
2022-10-17T01:20:15.053Z,89.96
2022-10-17T01:22:49.698Z,89.99
2022-10-17T01:25:56.075Z,90.54
2022-10-17T01:28:38.068Z,89.68
2022-10-17T01:31:13.592Z,88.63
2022-10-17T01:33:54.611Z,88.85
2022-10-17T01:36:44.091Z,88.73
2022-10-17T01:39:13.896Z,88.64
2022-10-17T01:41:49.344Z,88.76
2022-10-17T01:44:40.920Z,89.52
2022-10-17T01:47:13.615Z,88.40
2022-10-17T01:49:44.079Z,88.25
2022-10-17T01:52:15.491Z,88.09
2022-10-17T01:54:50.207Z,88.00
2022-10-17T01:57:31.330Z,86.47
2022-10-17T01:59:58.335Z,87.13
2022-10-17T02:02:26.839Z,88.08
2022-10-17T02:04:55.782Z,88.83
2022-10-17T02:07:22.440Z,88.54
2022-10-17T02:09:49.083Z,88.34
2022-10-17T02:12:15.612Z,88.65
2022-10-17T02:14:42.131Z,88.38
2022-10-17T02:17:15.163Z,88.04
2022-10-17T02:20:09.653Z,89.04
2022-10-17T02:22:52.448Z,89.23
2022-10-17T02:25:42.177Z,89.05
2022-10-17T02:28:14.864Z,87.82
2022-10-17T02:30:47.171Z,87.75
2022-10-17T02:33:26.147Z,88.98
2022-10-17T02:35:57.244Z,89.56
2022-10-17T02:38:28.089Z,89.04
2022-10-17T02:40:55.905Z,89.10
2022-10-17T02:43:23.779Z,89.68
2022-10-17T02:45:51.724Z,89.95
2022-10-17T02:48:31.186Z,88.81
2022-10-17T02:51:15.699Z,89.39
2022-10-17T02:53:42.269Z,88.05
2022-10-17T02:56:16.638Z,90.17
2022-10-17T02:58:48.888Z,89.06
2022-10-17T03:01:16.710Z,88.29
2022-10-17T03:03:43.489Z,88.41
2022-10-17T03:06:10.310Z,88.82
2022-10-17T03:11:08.497Z,91.57
2022-10-17T03:13:39.002Z,90.62
2022-10-17T03:16:06.655Z,90.98
2022-10-17T03:18:33.319Z,92.16
2022-10-17T03:20:59.941Z,93.84
2022-10-17T03:23:26.615Z,92.64
2022-10-17T03:25:53.468Z,93.45
2022-10-17T03:28:20.131Z,91.47
2022-10-17T03:30:46.653Z,90.81
2022-10-17T03:33:13.257Z,90.29
2022-10-17T03:35:40.635Z,90.54
2022-10-17T03:38:07.302Z,89.58
2022-10-17T03:40:33.916Z,88.72
2022-10-17T03:43:00.454Z,88.32
2022-10-17T03:45:27.061Z,88.89
2022-10-17T03:47:53.655Z,89.88
2022-10-17T03:50:20.260Z,90.32
2022-10-17T03:52:48.564Z,90.22
2022-10-17T03:55:15.921Z,90.26
2022-10-17T03:57:45.373Z,90.08
2022-10-17T04:00:13.102Z,90.61
2022-10-17T04:02:39.739Z,89.62
2022-10-17T04:05:07.155Z,90.60
2022-10-17T04:07:33.735Z,90.55
2022-10-17T04:10:00.327Z,91.31
2022-10-17T04:12:27.068Z,89.46
2022-10-17T04:14:53.958Z,89.58
2022-10-17T04:17:20.580Z,90.52
2022-10-17T04:19:49.079Z,90.63
2022-10-17T04:22:15.803Z,90.96
2022-10-17T04:24:42.400Z,92.47
2022-10-17T04:27:09.025Z,93.45
2022-10-17T04:29:35.621Z,93.80
2022-10-17T04:32:02.441Z,92.79
2022-10-17T04:34:29.169Z,93.45
2022-10-17T04:36:55.751Z,92.85
2022-10-17T04:39:22.361Z,93.27
2022-10-17T04:41:49.013Z,92.97
2022-10-17T04:44:15.638Z,92.08
2022-10-17T04:46:42.210Z,91.40
2022-10-17T04:49:09.064Z,91.30
2022-10-17T04:51:35.721Z,92.79
2022-10-17T04:54:02.321Z,90.78
2022-10-17T04:56:28.933Z,92.14
2022-10-17T04:58:55.703Z,91.47
2022-10-17T05:01:23.661Z,90.13
2022-10-17T05:03:50.396Z,91.30
2022-10-17T05:06:21.137Z,91.11
2022-10-17T05:08:48.393Z,90.40
2022-10-17T05:11:29.135Z,89.39
2022-10-17T05:13:57.706Z,89.26
2022-10-17T05:16:25.807Z,88.42
2022-10-17T05:18:55.752Z,89.00
2022-10-17T05:21:24.471Z,89.19
2022-10-17T05:23:51.547Z,87.53
2022-10-17T05:26:18.505Z,87.09
2022-10-17T05:28:45.212Z,88.17
2022-10-17T05:31:12.605Z,87.92
2022-10-17T05:33:39.534Z,88.56
2022-10-17T05:36:07.441Z,87.91
2022-10-17T05:38:34.377Z,87.05
2022-10-17T05:41:02.720Z,86.30
2022-10-17T05:43:30.056Z,85.26
2022-10-17T05:45:56.769Z,83.20
2022-10-17T05:48:23.972Z,84.87
2022-10-17T05:50:50.508Z,82.99
2022-10-17T05:53:17.477Z,82.16
2022-10-17T05:55:44.074Z,81.06
2022-10-17T05:58:17.697Z,80.11
2022-10-17T06:00:49.121Z,79.09
2022-10-17T06:03:15.700Z,78.79
2022-10-17T06:05:42.394Z,77.68
2022-10-17T06:08:09.026Z,77.48
2022-10-17T06:10:35.616Z,76.47
2022-10-17T06:13:02.177Z,77.46
2022-10-17T06:15:28.724Z,76.49
2022-10-17T06:17:55.261Z,75.78
2022-10-17T06:20:21.807Z,74.86
2022-10-17T06:22:48.385Z,75.33
2022-10-17T06:25:15.108Z,76.01
2022-10-17T06:27:41.707Z,75.51
2022-10-17T06:30:08.796Z,73.82
2022-10-17T06:32:35.363Z,73.27
2022-10-17T06:35:02.165Z,72.49
2022-10-17T06:37:35.595Z,71.76
2022-10-17T06:40:04.341Z,70.90
2022-10-17T06:42:30.921Z,69.95
2022-10-17T06:44:57.499Z,69.56
2022-10-17T06:47:24.240Z,68.36
2022-10-17T06:49:50.831Z,67.35
2022-10-17T06:52:17.495Z,65.68
2022-10-17T06:54:44.697Z,67.20
2022-10-17T06:57:11.319Z,64.73
2022-10-17T06:59:37.951Z,63.25
2022-10-17T07:02:05.657Z,63.25
2022-10-17T07:04:32.611Z,63.33
2022-10-17T07:09:27.762Z,64.02
2022-10-17T07:11:54.388Z,61.89
2022-10-17T07:14:21.171Z,60.56
2022-10-17T07:16:47.801Z,60.44
2022-10-17T07:19:14.475Z,58.28
2022-10-17T07:21:41.093Z,57.49
2022-10-17T07:24:07.711Z,56.66
2022-10-17T07:26:34.299Z,56.07
2022-10-17T07:29:01.891Z,56.84
2022-10-17T07:31:28.666Z,56.59
2022-10-17T07:33:55.266Z,55.48
2022-10-17T07:36:21.826Z,56.11
2022-10-17T07:38:48.375Z,55.55
2022-10-17T07:41:19.206Z,55.17
2022-10-17T07:43:48.294Z,54.28
2022-10-17T07:46:15.009Z,53.74
2022-10-17T07:48:41.640Z,52.61
2022-10-17T07:51:09.669Z,52.30
2022-10-17T07:53:38.149Z,52.64
2022-10-17T07:56:09.133Z,52.84
2022-10-17T07:58:37.091Z,51.87
2022-10-17T08:01:08.360Z,50.27
2022-10-17T08:03:37.424Z,48.82
2022-10-17T08:06:04.134Z,48.74
2022-10-17T08:08:30.798Z,46.82
2022-10-17T08:11:03.695Z,47.67
2022-10-17T08:13:30.501Z,47.04
2022-10-17T08:16:05.527Z,45.00
2022-10-17T08:18:32.110Z,43.94
2022-10-17T08:21:03.249Z,42.85
2022-10-17T08:23:29.792Z,43.49
2022-10-17T08:26:00.469Z,44.88
2022-10-17T08:28:27.050Z,45.07
2022-10-17T08:30:53.618Z,43.28
2022-10-17T08:33:20.213Z,40.80
2022-10-17T08:35:46.777Z,39.64
2022-10-17T08:38:13.622Z,41.86
2022-10-17T08:40:42.899Z,41.03
2022-10-17T08:43:35.185Z,40.83
2022-10-17T08:46:07.783Z,41.47
2022-10-17T08:48:46.814Z,41.79
2022-10-17T08:51:21.752Z,41.75
2022-10-17T08:54:15.479Z,42.52
2022-10-17T08:56:49.700Z,39.60
2022-10-17T08:59:28.553Z,40.72
2022-10-17T09:02:29.238Z,39.97
2022-10-17T09:05:01.913Z,40.49
2022-10-17T09:08:07.269Z,38.94
2022-10-17T09:11:17.330Z,39.61
2022-10-17T09:14:05.624Z,38.10
2022-10-17T09:16:59.614Z,38.77
2022-10-17T09:19:35.498Z,38.43
2022-10-17T09:22:09.533Z,38.17
2022-10-17T09:24:36.105Z,35.53
2022-10-17T09:27:03.472Z,35.08
2022-10-17T09:29:36.086Z,35.76
2022-10-17T09:32:18.404Z,35.15
2022-10-17T09:34:45.945Z,35.09
2022-10-17T09:37:17.290Z,33.76
2022-10-17T09:39:44.812Z,33.10
2022-10-17T09:42:21.435Z,33.82
2022-10-17T09:44:58.813Z,34.52
2022-10-17T09:47:51.775Z,34.41
2022-10-17T09:50:31.032Z,34.46
2022-10-17T09:53:10.219Z,34.18
2022-10-17T09:55:43.447Z,34.25
2022-10-17T09:58:11.528Z,34.09
2022-10-17T10:00:39.493Z,34.34
2022-10-17T10:03:22.969Z,33.25
2022-10-17T10:06:07.971Z,33.57
2022-10-17T10:08:37.992Z,33.60
2022-10-17T10:11:13.439Z,33.01
2022-10-17T10:13:40.740Z,33.30
2022-10-17T10:16:24.302Z,32.81
2022-10-17T10:18:51.937Z,33.65
2022-10-17T10:21:21.474Z,33.01
2022-10-17T10:24:03.676Z,34.36
2022-10-17T10:26:50.651Z,33.91
2022-10-17T10:29:40.029Z,33.26
2022-10-17T10:35:23.088Z,34.13
2022-10-17T10:37:58.424Z,34.09
2022-10-17T10:40:39.113Z,34.51
2022-10-17T10:43:06.586Z,34.87
2022-10-17T10:45:47.532Z,34.27
2022-10-17T10:48:35.030Z,34.56
2022-10-17T10:51:19.151Z,33.93
2022-10-17T10:53:56.655Z,34.62
2022-10-17T10:56:30.239Z,33.91
2022-10-17T10:59:08.757Z,33.29
2022-10-17T11:01:50.564Z,33.64
2022-10-17T11:04:30.000Z,33.72
2022-10-17T11:07:13.425Z,33.25
2022-10-17T11:09:46.535Z,33.52
2022-10-17T11:12:27.805Z,33.33
2022-10-17T11:15:03.583Z,32.91
2022-10-17T11:17:39.392Z,32.50
2022-10-17T11:20:08.961Z,32.13
2022-10-17T11:23:00.411Z,32.17
2022-10-17T11:25:40.813Z,32.46
2022-10-17T11:28:14.997Z,31.79
2022-10-17T11:30:48.176Z,32.39
2022-10-17T11:33:20.257Z,32.07
2022-10-17T11:35:51.405Z,32.83
2022-10-17T11:38:39.928Z,32.45
2022-10-17T11:41:10.849Z,32.65
2022-10-17T11:44:20.448Z,33.22
2022-10-17T11:46:54.521Z,32.16
2022-10-17T11:52:55.358Z,31.98
2022-10-17T11:55:28.121Z,31.69
2022-10-17T11:58:03.840Z,31.51
2022-10-17T12:00:46.174Z,31.71
2022-10-17T12:03:28.169Z,31.76
2022-10-17T12:05:58.881Z,32.65
2022-10-17T12:08:53.291Z,32.85
2022-10-17T12:11:56.374Z,33.13
2022-10-17T12:14:39.587Z,32.86
2022-10-17T12:17:29.287Z,31.88
2022-10-17T12:20:25.552Z,32.01
2022-10-17T12:23:03.271Z,32.30
2022-10-17T12:25:34.255Z,32.75
2022-10-17T12:28:15.963Z,32.92
2022-10-17T12:30:56.694Z,32.38
2022-10-17T12:33:34.106Z,32.67
2022-10-17T12:36:19.091Z,32.48
2022-10-17T12:38:50.485Z,32.58
2022-10-17T12:41:37.568Z,32.88
2022-10-17T12:44:12.920Z,32.41
2022-10-17T12:46:52.450Z,33.07
2022-10-17T12:49:43.637Z,33.63
2022-10-17T12:52:31.570Z,33.84
2022-10-17T12:55:15.545Z,34.27
2022-10-17T12:57:44.050Z,34.09
2022-10-17T13:00:22.890Z,34.07
2022-10-17T13:02:54.012Z,33.93
2022-10-17T13:05:38.575Z,34.68
2022-10-17T13:08:08.335Z,34.26
2022-10-17T13:10:41.951Z,34.36
2022-10-17T13:13:40.429Z,34.72
2022-10-17T13:16:07.569Z,34.51
2022-10-17T13:18:34.485Z,35.07
2022-10-17T13:21:03.934Z,35.26
2022-10-17T13:23:36.589Z,34.61
2022-10-17T13:26:18.184Z,34.71
2022-10-17T13:28:44.814Z,35.29
2022-10-17T13:31:32.316Z,35.37
2022-10-17T13:34:02.511Z,35.48
2022-10-17T13:36:31.539Z,35.89
2022-10-17T13:39:00.701Z,35.46
2022-10-17T13:41:35.740Z,35.68
2022-10-17T13:44:09.368Z,35.89
2022-10-17T13:46:38.449Z,36.51
2022-10-17T13:49:15.532Z,35.80
2022-10-17T13:51:48.127Z,36.16
2022-10-17T13:54:38.205Z,36.65
2022-10-17T13:57:06.015Z,36.81
2022-10-17T13:59:39.120Z,37.11
2022-10-17T14:02:12.651Z,37.63
2022-10-17T14:05:04.074Z,37.72
2022-10-17T14:07:46.165Z,38.68
2022-10-17T14:10:24.932Z,38.20
2022-10-17T14:12:53.363Z,38.16
2022-10-17T14:15:22.755Z,38.65
2022-10-17T14:17:56.597Z,38.55
2022-10-17T14:23:36.637Z,38.80
2022-10-17T14:26:16.154Z,39.24
2022-10-17T14:28:45.770Z,38.76
2022-10-17T14:31:18.475Z,39.22
2022-10-17T14:33:50.623Z,39.49
2022-10-17T14:36:19.450Z,39.53
2022-10-17T14:38:52.199Z,39.48
2022-10-17T14:41:42.801Z,39.69
2022-10-17T14:44:23.772Z,40.15
2022-10-17T14:46:55.083Z,40.66
2022-10-17T14:49:33.974Z,40.61
2022-10-17T14:52:15.162Z,40.68
2022-10-17T14:54:48.939Z,40.58
2022-10-17T14:57:33.088Z,40.73
2022-10-17T15:00:00.059Z,41.07
2022-10-17T15:02:30.711Z,40.96
2022-10-17T15:04:57.914Z,41.83
2022-10-17T15:07:24.961Z,41.74
2022-10-17T15:09:53.843Z,42.41
2022-10-17T15:12:23.718Z,41.86
2022-10-17T15:14:51.935Z,42.55
2022-10-17T15:17:22.537Z,42.04
2022-10-17T15:19:50.958Z,42.66
2022-10-17T15:22:18.461Z,43.01
2022-10-17T15:24:48.267Z,43.24
2022-10-17T15:27:23.799Z,43.61
2022-10-17T15:29:51.764Z,44.25
2022-10-17T15:32:19.093Z,43.90
2022-10-17T15:34:45.831Z,44.28
2022-10-17T15:37:22.574Z,44.83
2022-10-17T15:39:54.700Z,45.27
2022-10-17T15:42:26.505Z,45.39
2022-10-17T15:44:53.852Z,45.74
2022-10-17T15:47:34.307Z,46.30
2022-10-17T15:50:02.271Z,47.32
2022-10-17T15:52:28.997Z,47.69
2022-10-17T15:54:57.423Z,48.53
2022-10-17T15:57:30.315Z,48.95
2022-10-17T15:59:59.853Z,50.04
2022-10-17T16:02:26.988Z,50.17
2022-10-17T16:04:53.996Z,50.60
2022-10-17T16:07:21.970Z,51.21
2022-10-17T16:09:48.784Z,50.67
2022-10-17T16:14:50.551Z,51.39
2022-10-17T16:17:17.831Z,51.06
2022-10-17T16:19:47.682Z,51.70
2022-10-17T16:22:36.849Z,52.05
2022-10-17T16:25:10.267Z,52.02
2022-10-17T16:27:37.919Z,52.24
2022-10-17T16:30:06.802Z,52.44
2022-10-17T16:32:33.951Z,53.30
2022-10-17T16:35:00.757Z,53.33
2022-10-17T16:37:27.635Z,53.89
2022-10-17T16:39:54.385Z,54.77
2022-10-17T16:42:21.810Z,55.07
2022-10-17T16:44:49.887Z,55.56
2022-10-17T16:47:17.790Z,55.75
2022-10-17T16:49:45.481Z,56.73
2022-10-17T16:52:13.699Z,56.91
2022-10-17T16:54:40.594Z,57.46
2022-10-17T16:57:07.397Z,57.95
2022-10-17T16:59:34.220Z,58.24
2022-10-17T17:02:05.064Z,58.37
2022-10-17T17:04:31.997Z,58.12
2022-10-17T17:06:59.012Z,58.77
2022-10-17T17:09:27.189Z,59.18
2022-10-17T17:11:53.929Z,59.09
2022-10-17T17:14:20.704Z,59.71
2022-10-17T17:16:47.523Z,59.52
2022-10-17T17:19:20.083Z,59.34
2022-10-17T17:21:51.196Z,60.06
2022-10-17T17:24:21.299Z,60.47
2022-10-17T17:26:55.474Z,61.12
2022-10-17T17:29:23.874Z,61.56
2022-10-17T17:31:55.456Z,62.05
2022-10-17T17:34:22.284Z,62.13
2022-10-17T17:36:53.716Z,62.83
2022-10-17T17:39:20.488Z,63.12
2022-10-17T17:41:47.318Z,63.91
2022-10-17T17:44:16.773Z,64.30
2022-10-17T17:46:44.534Z,65.21
2022-10-17T17:49:11.854Z,65.86
2022-10-17T17:51:41.721Z,66.56
2022-10-17T17:54:14.041Z,66.90
2022-10-17T17:56:40.904Z,67.30
2022-10-17T17:59:07.810Z,67.65
2022-10-17T18:01:41.744Z,67.79
2022-10-17T18:04:09.563Z,68.03
2022-10-17T18:06:42.467Z,68.56
2022-10-17T18:09:11.163Z,69.21
2022-10-17T18:11:38.832Z,69.69
2022-10-17T18:14:08.194Z,69.83
2022-10-17T18:16:36.800Z,69.81
2022-10-17T18:19:09.361Z,70.58
2022-10-17T18:21:39.020Z,70.15
2022-10-17T18:24:06.313Z,70.19
2022-10-17T18:26:33.998Z,70.36
2022-10-17T18:29:03.351Z,70.95
2022-10-17T18:31:38.321Z,70.81
2022-10-17T18:34:08.126Z,70.99
2022-10-17T18:36:39.151Z,70.79
2022-10-17T18:39:06.044Z,71.27
2022-10-17T18:41:33.901Z,71.86
2022-10-17T18:44:00.933Z,72.34
2022-10-17T18:46:36.031Z,72.26
2022-10-17T18:49:13.742Z,72.33
2022-10-17T18:51:46.099Z,72.27
2022-10-17T18:54:23.286Z,72.48
2022-10-17T18:56:53.104Z,72.50
2022-10-17T18:59:20.784Z,72.37
2022-10-17T19:01:50.911Z,72.26
2022-10-17T19:04:17.847Z,72.79
2022-10-17T19:06:46.805Z,73.59
2022-10-17T19:09:17.532Z,72.81
2022-10-17T19:11:48.260Z,73.46
2022-10-17T19:14:24.206Z,73.18
2022-10-17T19:16:53.717Z,73.63
2022-10-17T19:19:24.150Z,73.59
2022-10-17T19:21:54.519Z,74.24
2022-10-17T19:24:27.048Z,74.24
2022-10-17T19:26:56.994Z,74.18
2022-10-17T19:29:27.651Z,74.15
2022-10-17T19:34:29.268Z,74.98
2022-10-17T19:36:57.771Z,75.22
2022-10-17T19:39:27.716Z,75.80
2022-10-17T19:42:04.258Z,76.04
2022-10-17T19:44:33.645Z,75.89
2022-10-17T19:47:03.226Z,76.39
2022-10-17T19:49:30.041Z,76.69
2022-10-17T19:51:59.481Z,76.67
2022-10-17T19:54:26.359Z,76.79
2022-10-17T19:56:53.235Z,76.84
2022-10-17T19:59:20.219Z,78.13
2022-10-17T20:01:52.864Z,78.17
2022-10-17T20:04:19.757Z,78.20
2022-10-17T20:06:46.557Z,78.89
2022-10-17T20:09:16.904Z,79.93
2022-10-17T20:11:47.396Z,79.12
2022-10-17T20:14:14.228Z,78.66
2022-10-17T20:16:41.040Z,79.23
2022-10-17T20:19:10.622Z,79.45
2022-10-17T20:21:39.991Z,79.71
2022-10-17T20:24:09.090Z,79.59
2022-10-17T20:26:41.608Z,79.70
2022-10-17T20:29:13.563Z,80.38
2022-10-17T20:31:42.227Z,81.18
2022-10-17T20:34:12.891Z,81.99
2022-10-17T20:36:39.830Z,82.31
2022-10-17T20:39:07.546Z,81.66
2022-10-17T20:41:34.483Z,81.83
2022-10-17T20:44:01.292Z,81.44
2022-10-17T20:46:37.274Z,82.98
2022-10-17T20:49:08.741Z,82.99
2022-10-17T20:51:36.306Z,82.54
2022-10-17T20:54:06.345Z,83.55
2022-10-17T20:56:34.963Z,83.87
2022-10-17T20:59:04.743Z,83.91
2022-10-17T21:01:32.949Z,84.39
2022-10-17T21:04:15.827Z,83.73
2022-10-17T21:06:52.122Z,83.94
2022-10-17T21:09:19.877Z,82.93
2022-10-17T21:11:46.805Z,83.61
2022-10-17T21:14:13.642Z,83.86
2022-10-17T21:16:41.487Z,83.38
2022-10-17T21:19:09.873Z,81.44
2022-10-17T21:21:38.680Z,82.20
2022-10-17T21:24:09.247Z,82.85
2022-10-17T21:26:37.708Z,82.51
2022-10-17T21:29:06.039Z,82.77
2022-10-17T21:31:35.172Z,83.18
2022-10-17T21:34:12.233Z,83.66
2022-10-17T21:36:39.510Z,83.79
2022-10-17T21:41:33.743Z,83.90
2022-10-17T21:44:03.920Z,82.24
2022-10-17T21:46:33.084Z,83.82
2022-10-17T21:49:01.106Z,83.55
2022-10-17T21:51:28.337Z,82.92
2022-10-17T21:53:57.363Z,83.54
2022-10-17T21:56:29.152Z,84.93
2022-10-17T21:58:56.774Z,87.50
2022-10-17T22:01:30.779Z,88.15
2022-10-17T22:04:00.377Z,86.68
2022-10-17T22:06:45.029Z,87.72
2022-10-17T22:09:20.694Z,89.32
2022-10-17T22:11:49.177Z,89.29
2022-10-17T22:14:18.471Z,89.30
2022-10-17T22:16:46.645Z,90.46
2022-10-17T22:19:15.688Z,89.81
2022-10-17T22:21:42.372Z,90.10
2022-10-17T22:24:12.392Z,89.37
2022-10-17T22:26:39.120Z,89.10
2022-10-17T22:29:07.595Z,88.68
2022-10-17T22:31:34.443Z,87.64
2022-10-17T22:34:00.995Z,87.69
2022-10-17T22:36:27.746Z,88.44
2022-10-17T22:38:54.327Z,89.57
2022-10-17T22:41:20.897Z,90.40
2022-10-17T22:43:47.506Z,90.50
2022-10-17T22:46:16.688Z,90.35
2022-10-17T22:48:43.765Z,90.36
2022-10-17T22:51:11.078Z,91.34
2022-10-17T22:53:38.105Z,91.95
2022-10-17T22:56:09.344Z,92.18
2022-10-17T22:58:36.536Z,91.58
2022-10-17T23:01:04.602Z,91.89
2022-10-17T23:03:31.951Z,92.47
2022-10-17T23:05:58.922Z,91.58
2022-10-17T23:08:27.290Z,90.39
2022-10-17T23:10:54.140Z,90.22
2022-10-17T23:13:21.954Z,90.33
2022-10-17T23:15:52.955Z,90.52
2022-10-17T23:18:20.581Z,90.12
2022-10-17T23:20:47.944Z,90.95
2022-10-17T23:23:14.888Z,91.83
2022-10-17T23:25:41.814Z,92.86
2022-10-17T23:28:08.884Z,93.78
2022-10-17T23:30:36.835Z,94.53
2022-10-17T23:33:04.423Z,94.91
2022-10-17T23:35:31.918Z,95.12
2022-10-17T23:37:58.521Z,95.65
2022-10-17T23:40:25.195Z,95.04
2022-10-17T23:42:51.809Z,95.38
2022-10-17T23:45:18.548Z,96.11
2022-10-17T23:47:45.296Z,95.71
2022-10-17T23:50:12.678Z,95.70
2022-10-17T23:52:39.491Z,95.65
2022-10-17T23:55:06.814Z,95.64
2022-10-17T23:57:33.654Z,94.91
